Time;durP1;ratioP1;P1;durP2;ratioP2;P2;SDS_P1;SDS_P2;PMS_P1;PMS_P2;Temp;Humidity;BMP_temperature;BMP_pressure;BME280_temperature;BME280_humidity;BME280_pressure;Samples;Min_cycle;Max_cycle;Signal;HPM_P1;HPM_P2
2022/10/15 00:00:29;;;;;;;47.42;33.83;;;12.20;99.90;;;;;;4944832;28;20063;-85
2022/10/15 00:02:54;;;;;;;51.50;35.22;;;12.20;99.90;;;;;;4928294;29;20127;-85
2022/10/15 00:05:20;;;;;;;53.03;35.40;;;12.20;99.90;;;;;;4896341;29;20042;-85
2022/10/15 00:07:46;;;;;;;50.42;34.65;;;12.30;99.90;;;;;;4901768;29;20571;-85
2022/10/15 00:10:13;;;;;;;56.97;36.08;;;12.20;99.90;;;;;;4916888;29;20040;-85
2022/10/15 00:12:39;;;;;;;52.45;35.60;;;12.20;99.90;;;;;;4932010;29;20141;-85
2022/10/15 00:15:05;;;;;;;53.42;35.30;;;12.20;99.90;;;;;;4915258;29;20051;-85
2022/10/15 00:17:32;;;;;;;48.25;33.20;;;12.10;99.90;;;;;;4930439;29;20051;-85
2022/10/15 00:19:58;;;;;;;67.03;38.05;;;12.20;99.90;;;;;;4929343;29;20063;-85
2022/10/15 00:22:24;;;;;;;51.47;36.08;;;12.20;99.90;;;;;;4930617;29;20535;-85
2022/10/15 00:24:49;;;;;;;57.83;35.72;;;12.20;99.90;;;;;;4945710;28;20044;-85
2022/10/15 00:27:15;;;;;;;48.40;34.75;;;12.20;99.90;;;;;;4928375;29;20039;-84
2022/10/15 00:29:40;;;;;;;49.40;34.50;;;12.20;99.90;;;;;;4930826;29;20102;-85
2022/10/15 00:32:06;;;;;;;50.92;36.63;;;12.10;99.90;;;;;;4947913;28;20551;-86
2022/10/15 00:34:31;;;;;;;57.92;38.17;;;12.20;99.90;;;;;;4930411;29;20066;-85
2022/10/15 00:36:57;;;;;;;55.05;37.70;;;12.20;99.90;;;;;;4918948;29;20047;-85
2022/10/15 00:39:22;;;;;;;59.15;38.17;;;12.20;99.90;;;;;;4916757;29;20086;-86
2022/10/15 00:41:48;;;;;;;60.72;38.92;;;12.20;99.90;;;;;;4944486;28;20591;-86
2022/10/15 00:44:20;;;;;;;56.08;38.05;;;12.20;99.90;;;;;;4928794;29;20123;-84
2022/10/15 00:46:48;;;;;;;51.38;38.42;;;12.20;99.90;;;;;;4932328;29;20039;-85
2022/10/15 00:49:18;;;;;;;66.43;39.58;;;12.20;99.90;;;;;;4899186;29;20988;-84
2022/10/15 00:51:48;;;;;;;54.28;38.80;;;12.10;99.90;;;;;;4898463;29;20591;-85
2022/10/15 00:54:14;;;;;;;61.83;39.35;;;12.20;99.90;;;;;;4918603;29;20042;-86
2022/10/15 00:56:43;;;;;;;48.92;37.47;;;12.20;99.90;;;;;;4917253;29;20047;-85
2022/10/15 00:59:11;;;;;;;62.70;40.38;;;12.20;99.90;;;;;;4944638;28;20044;-85
2022/10/15 01:01:37;;;;;;;56.00;38.50;;;12.20;99.90;;;;;;4920097;29;20043;-85
2022/10/15 01:04:04;;;;;;;53.28;37.97;;;12.20;99.90;;;;;;4901832;29;20053;-85
2022/10/15 01:06:30;;;;;;;56.00;37.63;;;12.20;99.90;;;;;;4914671;29;20472;-86
2022/10/15 01:08:56;;;;;;;52.75;37.97;;;12.10;99.90;;;;;;4932061;29;20122;-86
2022/10/15 01:11:42;;;;;;;55.30;38.50;;;12.20;99.90;;;;;;4905684;29;20040;-85
2022/10/15 01:14:35;;;;;;;49.78;36.92;;;12.20;99.90;;;;;;4931588;29;20047;-85
2022/10/15 01:17:29;;;;;;;56.22;39.08;;;12.20;99.90;;;;;;4920926;29;20126;-84
2022/10/15 01:20:33;;;;;;;55.92;37.80;;;12.20;99.90;;;;;;4912953;29;20050;-85
2022/10/15 01:23:20;;;;;;;57.58;40.50;;;12.20;99.90;;;;;;4946129;28;20058;-86
2022/10/15 01:26:29;;;;;;;59.92;39.22;;;12.20;99.90;;;;;;4944136;28;20048;-86
2022/10/15 01:29:15;;;;;;;54.47;37.45;;;12.20;99.90;;;;;;4945348;28;20107;-85
2022/10/15 01:31:54;;;;;;;64.35;39.53;;;12.20;99.90;;;;;;4931519;29;20404;-86
2022/10/15 01:34:30;;;;;;;50.08;36.25;;;12.20;99.90;;;;;;4934725;29;20066;-86
2022/10/15 01:36:59;;;;;;;57.22;37.03;;;12.20;99.90;;;;;;4945553;28;20047;-85
2022/10/15 01:39:29;;;;;;;55.70;37.42;;;12.20;99.90;;;;;;4912117;29;20046;-85
2022/10/15 01:42:06;;;;;;;56.10;37.92;;;12.20;99.90;;;;;;4932583;29;20396;-85
2022/10/15 01:44:41;;;;;;;53.47;37.17;;;12.20;99.90;;;;;;4913051;29;20489;-85
2022/10/15 01:47:15;;;;;;;59.13;38.92;;;12.20;99.90;;;;;;4929286;29;20048;-85
2022/10/15 01:49:44;;;;;;;46.20;34.60;;;12.20;99.90;;;;;;4943553;28;20500;-86
2022/10/15 01:52:16;;;;;;;55.58;38.72;;;12.20;99.90;;;;;;4950169;28;20051;-86
2022/10/15 01:54:45;;;;;;;48.22;34.05;;;12.20;99.90;;;;;;4934320;29;20130;-85
2022/10/15 01:57:12;;;;;;;46.47;34.83;;;12.20;99.90;;;;;;4916984;29;20050;-86
2022/10/15 01:59:38;;;;;;;47.05;35.15;;;12.20;99.90;;;;;;4915027;29;20071;-85
2022/10/15 02:02:04;;;;;;;52.67;35.03;;;12.10;99.90;;;;;;4931648;29;20408;-85
2022/10/15 02:04:30;;;;;;;45.88;34.22;;;12.10;99.90;;;;;;4912596;29;20036;-84
2022/10/15 02:07:22;;;;;;;47.45;33.35;;;12.20;99.90;;;;;;4926666;29;20043;-84
2022/10/15 02:09:51;;;;;;;46.78;33.42;;;12.10;99.90;;;;;;4927432;29;20048;-86
2022/10/15 02:12:42;;;;;;;52.35;35.55;;;12.10;99.90;;;;;;4931124;29;20044;-85
2022/10/15 02:15:34;;;;;;;42.65;32.60;;;12.10;99.90;;;;;;4926707;29;20047;-85
2022/10/15 02:18:15;;;;;;;44.97;33.55;;;12.10;99.90;;;;;;4910630;29;20044;-86
2022/10/15 02:21:07;;;;;;;41.63;32.33;;;12.30;99.90;;;;;;4915029;29;20118;-86
2022/10/15 02:23:58;;;;;;;45.03;32.22;;;12.10;99.90;;;;;;4916969;29;20035;-86
2022/10/15 02:26:26;;;;;;;42.50;32.97;;;12.10;99.90;;;;;;4947559;28;20389;-85
2022/10/15 02:28:56;;;;;;;44.50;32.65;;;12.10;99.90;;;;;;4925876;29;20487;-86
2022/10/15 02:31:24;;;;;;;41.67;31.52;;;12.10;99.90;;;;;;4943839;28;20044;-85
2022/10/15 02:33:54;;;;;;;43.15;32.13;;;12.30;99.90;;;;;;4930799;29;20043;-85
2022/10/15 02:36:20;;;;;;;44.75;33.45;;;12.10;99.90;;;;;;4914238;29;20517;-86
2022/10/15 02:38:47;;;;;;;44.20;33.33;;;12.10;99.90;;;;;;4941878;28;21116;-85
2022/10/15 02:41:13;;;;;;;47.42;31.60;;;12.50;99.90;;;;;;4918129;29;20698;-86
2022/10/15 02:43:40;;;;;;;41.40;32.42;;;12.10;99.90;;;;;;4951496;28;20047;-85
2022/10/15 02:46:08;;;;;;;40.03;31.17;;;12.10;99.90;;;;;;4933513;29;20039;-85
2022/10/15 02:48:34;;;;;;;44.17;31.40;;;12.10;99.90;;;;;;4935795;29;20043;-86
2022/10/15 02:50:59;;;;;;;37.25;29.85;;;12.10;99.90;;;;;;4932614;29;20138;-85
2022/10/15 02:53:25;;;;;;;38.38;28.23;;;12.10;99.90;;;;;;4934668;28;20126;-85
2022/10/15 02:55:50;;;;;;;39.65;29.77;;;12.10;99.90;;;;;;4933481;28;20043;-85
2022/10/15 02:58:16;;;;;;;36.67;28.90;;;12.00;99.90;;;;;;4916153;29;20035;-84
2022/10/15 03:00:42;;;;;;;38.30;27.75;;;12.00;99.90;;;;;;4923088;29;20036;-85
2022/10/15 03:03:07;;;;;;;39.95;28.85;;;12.00;99.90;;;;;;4953465;28;20090;-85
2022/10/15 03:05:33;;;;;;;41.42;29.55;;;12.00;99.90;;;;;;4939157;29;20050;-85
2022/10/15 03:07:59;;;;;;;40.13;30.13;;;12.10;99.90;;;;;;4902937;29;20051;-85
2022/10/15 03:10:25;;;;;;;39.42;27.35;;;12.10;99.90;;;;;;4933787;29;20044;-85
2022/10/15 03:12:50;;;;;;;38.10;28.88;;;12.00;99.90;;;;;;4927064;29;20095;-85
2022/10/15 03:15:16;;;;;;;34.08;27.77;;;12.00;99.90;;;;;;4940704;29;20046;-85
2022/10/15 03:17:42;;;;;;;39.67;27.48;;;12.00;99.90;;;;;;4947297;28;20035;-85
2022/10/15 03:20:07;;;;;;;38.28;28.42;;;12.00;99.90;;;;;;4908590;29;20043;-84
2022/10/15 03:22:33;;;;;;;42.05;28.27;;;12.00;99.90;;;;;;4904569;29;20039;-86
2022/10/15 03:24:58;;;;;;;39.45;27.73;;;12.00;99.90;;;;;;4946959;28;20047;-85
2022/10/15 03:27:24;;;;;;;39.45;29.52;;;12.00;99.90;;;;;;4935852;29;20043;-85
2022/10/15 03:29:50;;;;;;;40.78;28.55;;;12.00;99.90;;;;;;4949605;28;20792;-84
2022/10/15 03:32:15;;;;;;;42.03;30.10;;;12.00;99.90;;;;;;4921646;29;20062;-86
2022/10/15 03:34:41;;;;;;;40.50;29.23;;;12.00;99.90;;;;;;4951722;28;20097;-85
2022/10/15 03:37:07;;;;;;;44.72;31.48;;;11.90;99.90;;;;;;4934783;29;20079;-85
2022/10/15 03:39:32;;;;;;;47.92;30.45;;;12.00;99.90;;;;;;4935186;29;20143;-85
2022/10/15 03:41:58;;;;;;;39.10;28.88;;;11.90;99.90;;;;;;4916245;29;20114;-84
2022/10/15 03:44:24;;;;;;;43.70;30.40;;;11.90;99.90;;;;;;4945692;28;20043;-85
2022/10/15 03:46:49;;;;;;;44.47;30.52;;;11.90;99.90;;;;;;4918285;29;20131;-85
2022/10/15 03:49:15;;;;;;;42.58;30.10;;;11.90;99.90;;;;;;4948393;28;20035;-85
2022/10/15 03:51:40;;;;;;;43.20;31.15;;;11.90;99.90;;;;;;4904523;29;20056;-85
2022/10/15 03:54:06;;;;;;;48.47;31.17;;;11.90;99.90;;;;;;4917178;29;20047;-85
2022/10/15 03:56:32;;;;;;;43.45;31.05;;;11.90;99.90;;;;;;4928708;29;20051;-85
2022/10/15 03:58:57;;;;;;;49.15;33.35;;;11.90;99.90;;;;;;4946828;28;20035;-85
2022/10/15 04:01:23;;;;;;;49.08;32.55;;;11.90;99.90;;;;;;4947542;28;20039;-85
2022/10/15 04:03:52;;;;;;;52.17;35.53;;;11.90;99.90;;;;;;4930894;29;20053;-84
2022/10/15 04:06:20;;;;;;;45.72;32.20;;;11.90;99.90;;;;;;4900757;29;20039;-85
2022/10/15 04:08:46;;;;;;;47.22;35.15;;;11.90;99.90;;;;;;4949106;28;20047;-86
2022/10/15 04:11:11;;;;;;;60.15;36.90;;;11.80;99.90;;;;;;4921025;29;20043;-85
2022/10/15 04:13:37;;;;;;;51.83;36.08;;;11.90;99.90;;;;;;4929426;29;20051;-84
2022/10/15 04:16:04;;;;;;;56.88;36.70;;;11.90;99.90;;;;;;4946310;28;20066;-85
2022/10/15 04:18:30;;;;;;;56.60;36.05;;;11.90;99.90;;;;;;4944608;28;20043;-85
2022/10/15 04:21:00;;;;;;;58.13;37.83;;;11.80;99.90;;;;;;4916809;29;20043;-85
2022/10/15 04:23:26;;;;;;;52.80;37.00;;;11.80;99.90;;;;;;4937013;29;20036;-86
2022/10/15 04:25:52;;;;;;;52.67;36.42;;;11.80;99.90;;;;;;4915133;29;20050;-85
2022/10/15 04:28:17;;;;;;;59.30;39.05;;;11.80;99.90;;;;;;4913307;29;20040;-83
2022/10/15 04:30:43;;;;;;;55.00;37.17;;;11.70;99.90;;;;;;4921132;29;20040;-85
2022/10/15 04:33:09;;;;;;;59.10;39.58;;;11.70;99.90;;;;;;4919334;29;20050;-85
2022/10/15 04:35:35;;;;;;;61.97;39.95;;;11.70;99.90;;;;;;4914396;29;20040;-85
2022/10/15 04:38:01;;;;;;;64.90;41.30;;;11.70;99.90;;;;;;4930110;29;20412;-85
2022/10/15 04:40:27;;;;;;;73.82;43.67;;;11.70;99.90;;;;;;4944111;28;20043;-84
2022/10/15 04:42:52;;;;;;;63.90;42.67;;;11.70;99.90;;;;;;4944989;28;20051;-85
2022/10/15 04:45:18;;;;;;;67.10;42.58;;;11.60;99.90;;;;;;4945551;28;20526;-84
2022/10/15 04:47:44;;;;;;;70.28;44.20;;;11.60;99.90;;;;;;4930758;29;20657;-85
2022/10/15 04:50:10;;;;;;;71.35;43.10;;;11.60;99.90;;;;;;4913256;29;20519;-85
2022/10/15 04:52:36;;;;;;;74.60;44.92;;;11.60;99.90;;;;;;4913092;29;20059;-85
2022/10/15 04:55:03;;;;;;;69.45;44.38;;;11.60;99.90;;;;;;4899590;29;20043;-85
2022/10/15 04:57:30;;;;;;;71.00;44.05;;;11.60;99.90;;;;;;4918623;29;20044;-86
2022/10/15 04:59:55;;;;;;;66.93;45.20;;;11.50;99.90;;;;;;4916599;29;20032;-85
2022/10/15 05:02:21;;;;;;;69.95;41.85;;;11.50;99.90;;;;;;4918006;28;20597;-85
2022/10/15 05:04:47;;;;;;;62.42;43.10;;;11.50;99.90;;;;;;4931171;29;20039;-85
2022/10/15 05:07:13;;;;;;;78.00;44.22;;;11.50;99.90;;;;;;4898844;29;20043;-85
2022/10/15 05:09:38;;;;;;;65.55;42.30;;;11.50;99.90;;;;;;4945587;28;20043;-85
2022/10/15 05:12:04;;;;;;;71.30;43.97;;;11.50;99.90;;;;;;4946545;28;20524;-85
2022/10/15 05:14:29;;;;;;;67.82;44.13;;;11.40;99.90;;;;;;4927285;29;20051;-85
2022/10/15 05:16:55;;;;;;;75.53;44.25;;;11.50;99.90;;;;;;4913766;29;20091;-85
2022/10/15 05:19:20;;;;;;;70.40;44.67;;;11.50;99.90;;;;;;4943558;28;20044;-85
2022/10/15 05:21:46;;;;;;;72.30;45.20;;;11.50;99.90;;;;;;4926606;29;20028;-85
2022/10/15 05:24:12;;;;;;;72.13;44.15;;;11.50;99.90;;;;;;4927704;29;20035;-85
2022/10/15 05:26:37;;;;;;;69.35;43.47;;;11.50;99.90;;;;;;4931818;29;20123;-86
2022/10/15 05:29:03;;;;;;;75.15;46.20;;;11.50;99.90;;;;;;4915310;29;20130;-85
2022/10/15 05:31:30;;;;;;;81.00;47.45;;;11.50;99.90;;;;;;4917356;29;20043;-85
2022/10/15 05:33:56;;;;;;;76.80;47.35;;;11.50;99.90;;;;;;4914643;29;20146;-85
2022/10/15 05:36:27;;;;;;;79.63;48.40;;;11.50;99.90;;;;;;4943285;28;20131;-86
2022/10/15 05:39:01;;;;;;;74.55;46.17;;;11.50;99.90;;;;;;4910867;29;20044;-85
2022/10/15 05:41:28;;;;;;;86.28;50.20;;;11.50;99.90;;;;;;4944634;28;20071;-85
2022/10/15 05:43:56;;;;;;;77.03;47.80;;;11.60;99.90;;;;;;4911192;29;20090;-86
2022/10/15 05:46:23;;;;;;;80.82;46.55;;;11.50;99.90;;;;;;4898833;29;20044;-86
2022/10/15 05:48:49;;;;;;;74.55;46.70;;;11.50;99.90;;;;;;4926824;29;20079;-85
2022/10/15 05:51:15;;;;;;;76.13;47.30;;;11.50;99.90;;;;;;4922430;29;20555;-85
2022/10/15 05:53:42;;;;;;;86.57;50.47;;;11.50;99.90;;;;;;4940532;28;20043;-85
2022/10/15 05:56:09;;;;;;;81.50;48.97;;;11.60;99.90;;;;;;4897500;29;20050;-85
2022/10/15 05:58:35;;;;;;;80.80;47.75;;;11.60;99.90;;;;;;4899135;29;20617;-86
2022/10/15 06:01:03;;;;;;;82.07;50.22;;;11.60;99.90;;;;;;4928473;29;20504;-85
2022/10/15 06:03:29;;;;;;;83.65;47.42;;;11.60;99.90;;;;;;4894937;29;20043;-86
2022/10/15 06:05:55;;;;;;;80.68;50.60;;;11.60;99.90;;;;;;4941861;28;20043;-85
2022/10/15 06:08:21;;;;;;;74.85;47.60;;;11.80;99.90;;;;;;4941917;28;20046;-87
2022/10/15 06:10:47;;;;;;;85.55;50.53;;;11.70;99.90;;;;;;4892745;29;20039;-86
2022/10/15 06:13:14;;;;;;;83.85;49.85;;;11.70;99.90;;;;;;4908198;29;20044;-85
2022/10/15 06:15:41;;;;;;;84.72;48.20;;;11.70;99.90;;;;;;4925838;28;20095;-86
2022/10/15 06:18:07;;;;;;;79.30;48.85;;;11.70;99.90;;;;;;4924411;29;20397;-85
2022/10/15 06:20:32;;;;;;;86.50;48.47;;;11.70;99.90;;;;;;4928569;29;20027;-86
2022/10/15 06:22:59;;;;;;;83.53;48.25;;;11.70;99.90;;;;;;4925045;29;21619;-86
2022/10/15 06:25:25;;;;;;;76.38;46.22;;;11.70;99.90;;;;;;4941368;28;20074;-84
2022/10/15 06:27:51;;;;;;;77.15;47.03;;;11.80;99.90;;;;;;4927331;29;20130;-86
2022/10/15 06:30:18;;;;;;;77.50;47.25;;;11.80;99.90;;;;;;4905879;29;20032;-85
2022/10/15 06:32:51;;;;;;;81.93;47.65;;;11.80;99.90;;;;;;4910072;29;20035;-86
2022/10/15 06:35:19;;;;;;;86.18;48.08;;;11.80;99.90;;;;;;4920676;29;20449;-85
2022/10/15 06:37:45;;;;;;;85.82;48.85;;;11.80;99.90;;;;;;4926453;29;20527;-85
2022/10/15 06:40:11;;;;;;;79.43;46.97;;;11.90;99.90;;;;;;4910372;29;20042;-86
2022/10/15 06:42:37;;;;;;;88.55;49.17;;;11.90;99.90;;;;;;4940404;28;20051;-87
2022/10/15 06:45:04;;;;;;;78.57;46.78;;;12.40;99.90;;;;;;4927936;29;20036;-87
2022/10/15 06:47:30;;;;;;;75.78;45.97;;;12.00;99.90;;;;;;4925641;29;20054;-86
2022/10/15 06:49:55;;;;;;;78.57;47.53;;;12.00;99.90;;;;;;4924871;29;20044;-85
2022/10/15 06:52:22;;;;;;;64.40;44.25;;;12.00;99.90;;;;;;4923650;29;20075;-85
2022/10/15 06:54:48;;;;;;;70.22;45.45;;;12.10;99.90;;;;;;4895954;29;20054;-85
2022/10/15 06:57:13;;;;;;;75.05;45.80;;;12.10;99.90;;;;;;4943035;28;20047;-87
2022/10/15 06:59:39;;;;;;;70.85;44.22;;;12.10;99.90;;;;;;4930873;29;20043;-86
2022/10/15 07:02:05;;;;;;;72.10;45.20;;;12.10;99.90;;;;;;4934036;29;20042;-86
2022/10/15 07:04:31;;;;;;;68.35;43.72;;;12.20;99.90;;;;;;4947496;28;20033;-86
2022/10/15 07:06:57;;;;;;;68.80;45.25;;;12.20;99.90;;;;;;4902078;29;20483;-86
2022/10/15 07:09:22;;;;;;;66.90;43.25;;;12.30;99.90;;;;;;4944584;28;20165;-85
2022/10/15 07:11:48;;;;;;;61.75;42.20;;;12.40;99.90;;;;;;4899854;29;20050;-86
2022/10/15 07:14:15;;;;;;;65.28;43.15;;;12.40;99.90;;;;;;4916193;29;20039;-86
2022/10/15 07:16:44;;;;;;;54.15;40.65;;;12.50;99.90;;;;;;4916102;29;20052;-86
2022/10/15 07:19:10;;;;;;;60.15;39.75;;;12.50;99.90;;;;;;4899635;29;20727;-86
2022/10/15 07:21:35;;;;;;;56.28;39.33;;;12.70;99.90;;;;;;4922289;29;20052;-86
2022/10/15 07:24:01;;;;;;;52.33;37.88;;;12.60;99.90;;;;;;4919993;29;20051;-86
2022/10/15 07:26:29;;;;;;;51.65;37.05;;;12.70;99.90;;;;;;4937805;28;20050;-88
2022/10/15 07:28:56;;;;;;;55.63;37.45;;;12.80;99.90;;;;;;4911555;29;20058;-86
2022/10/15 07:31:26;;;;;;;50.65;36.67;;;12.80;99.90;;;;;;4941599;28;20054;-86
2022/10/15 07:34:07;;;;;;;55.60;39.42;;;12.90;99.90;;;;;;4929187;29;20081;-87
2022/10/15 07:37:24;;;;;;;52.40;36.83;;;13.00;99.90;;;;;;4929740;29;20453;-87
2022/10/15 07:40:09;;;;;;;51.47;36.45;;;13.00;99.90;;;;;;4915101;29;21396;-87
2022/10/15 07:42:35;;;;;;;48.10;35.65;;;13.00;99.90;;;;;;4901184;29;20047;-87
2022/10/15 07:48:41;;;;;;;42.50;33.88;;;13.00;99.90;;;;;;4922634;29;20047;-88
2022/10/15 07:51:47;;;;;;;44.97;35.72;;;13.10;99.90;;;;;;4934865;29;20047;-87
2022/10/15 07:54:59;;;;;;;49.78;36.70;;;13.10;99.90;;;;;;4896272;29;20054;-87
2022/10/15 07:57:48;;;;;;;48.15;36.60;;;13.20;99.90;;;;;;4932237;29;20539;-87
2022/10/15 08:04:49;;;;;;;47.53;36.80;;;13.20;99.90;;;;;;4932278;29;20094;-87
2022/10/15 08:11:29;;;;;;;52.08;39.38;;;13.10;99.90;;;;;;4882796;29;20075;-88
2022/10/15 08:13:55;;;;;;;55.03;38.67;;;13.10;99.90;;;;;;4930438;29;20047;-88
2022/10/15 08:16:30;;;;;;;57.65;41.42;;;13.00;99.90;;;;;;4928146;29;20138;-87
2022/10/15 08:18:59;;;;;;;53.65;40.30;;;13.00;99.90;;;;;;4899070;29;20052;-88
2022/10/15 08:21:47;;;;;;;53.42;39.88;;;12.90;99.90;;;;;;4922819;29;20046;-87
2022/10/15 08:31:41;;;;;;;55.95;40.95;;;13.00;99.90;;;;;;4916837;29;20044;-87
2022/10/15 08:34:07;;;;;;;62.38;43.83;;;13.00;99.90;;;;;;4945440;28;20047;-88
2022/10/15 08:37:04;;;;;;;59.50;42.22;;;13.00;99.90;;;;;;4934421;29;20154;-87
2022/10/15 08:39:49;;;;;;;51.10;40.25;;;13.20;99.90;;;;;;4916655;29;20040;-89
2022/10/15 08:42:50;;;;;;;54.63;40.20;;;13.20;99.90;;;;;;4927785;29;20046;-88
2022/10/15 08:46:42;;;;;;;53.42;40.53;;;13.60;99.90;;;;;;4934576;29;20141;-87
2022/10/15 08:49:29;;;;;;;53.58;39.00;;;13.30;99.90;;;;;;4906095;29;20043;-87
2022/10/15 08:52:20;;;;;;;52.50;40.58;;;13.30;99.90;;;;;;4911679;29;20059;-89
2022/10/15 08:54:46;;;;;;;57.47;40.25;;;13.30;99.90;;;;;;4919633;29;20059;-88
2022/10/15 08:57:49;;;;;;;56.42;40.28;;;13.40;99.90;;;;;;4901477;29;20055;-88
2022/10/15 09:00:22;;;;;;;55.67;38.70;;;13.30;99.90;;;;;;4912582;29;20118;-87
2022/10/15 09:03:03;;;;;;;54.63;39.90;;;13.30;99.90;;;;;;4946207;28;20039;-86
2022/10/15 09:05:33;;;;;;;61.78;41.78;;;13.30;99.90;;;;;;4941864;28;20047;-87
2022/10/15 09:08:20;;;;;;;59.80;42.60;;;13.20;99.90;;;;;;4929607;29;20043;-86
2022/10/15 09:10:51;;;;;;;62.10;42.15;;;13.20;99.90;;;;;;4898414;29;20044;-86
2022/10/15 09:13:32;;;;;;;67.97;42.20;;;13.20;99.90;;;;;;4909635;29;20111;-87
2022/10/15 09:16:15;;;;;;;65.85;43.58;;;13.20;99.90;;;;;;4923109;29;20043;-86
2022/10/15 09:18:44;;;;;;;66.38;43.25;;;13.20;99.90;;;;;;4941340;28;20066;-86
2022/10/15 09:21:12;;;;;;;72.13;44.63;;;13.50;99.90;;;;;;4943205;28;20042;-86
2022/10/15 09:23:37;;;;;;;69.82;42.20;;;13.20;99.90;;;;;;4942459;28;20050;-86
2022/10/15 09:26:28;;;;;;;69.55;42.00;;;13.20;99.90;;;;;;4941683;28;20040;-85
2022/10/15 09:28:56;;;;;;;60.45;38.78;;;13.20;99.90;;;;;;4910288;29;20031;-86
2022/10/15 09:31:27;;;;;;;61.97;38.67;;;13.10;99.90;;;;;;4927874;29;20035;-86
2022/10/15 09:34:09;;;;;;;61.38;37.55;;;13.20;99.90;;;;;;4946987;28;20074;-87
2022/10/15 09:36:44;;;;;;;50.40;34.17;;;13.10;99.90;;;;;;4913685;29;20063;-86
2022/10/15 09:39:25;;;;;;;48.95;32.15;;;13.10;99.90;;;;;;4912367;29;20414;-85
2022/10/15 09:42:19;;;;;;;50.17;32.97;;;13.20;99.90;;;;;;4923597;29;20036;-86
2022/10/15 09:44:50;;;;;;;44.63;31.73;;;13.20;99.90;;;;;;4942215;28;20032;-85
2022/10/15 09:47:26;;;;;;;42.10;28.65;;;13.20;99.90;;;;;;4914316;29;20101;-86
2022/10/15 09:49:51;;;;;;;;;;;13.30;99.90;;;;;;4930359;29;20485;-85
2022/10/15 09:52:51;;;;;;;48.05;30.48;;;13.40;99.90;;;;;;4928790;29;19943;-88
2022/10/15 09:55:34;;;;;;;43.90;28.73;;;13.40;99.90;;;;;;4930803;29;20056;-87
2022/10/15 09:58:14;;;;;;;36.88;26.55;;;13.40;99.90;;;;;;4925028;29;20099;-87
2022/10/15 10:00:56;;;;;;;36.22;24.58;;;13.40;99.90;;;;;;4927173;29;20044;-87
2022/10/15 10:03:24;;;;;;;34.55;25.63;;;13.40;99.90;;;;;;4931197;29;20130;-87
2022/10/15 10:05:58;;;;;;;29.23;22.48;;;13.50;99.90;;;;;;4942181;28;20074;-87
2022/10/15 10:08:34;;;;;;;27.23;21.20;;;13.60;99.90;;;;;;4897515;29;20039;-86
2022/10/15 10:11:06;;;;;;;32.60;22.83;;;13.60;99.90;;;;;;4916274;29;20551;-86
2022/10/15 10:13:35;;;;;;;27.98;21.90;;;13.60;99.90;;;;;;4941038;28;20051;-86
2022/10/15 10:16:20;;;;;;;25.98;20.25;;;13.70;99.90;;;;;;4926996;29;20444;-87
2022/10/15 10:19:13;;;;;;;24.65;19.70;;;14.30;99.90;;;;;;4930178;29;20396;-87
2022/10/15 10:21:41;;;;;;;26.85;19.73;;;13.70;99.90;;;;;;4926788;29;20048;-87
2022/10/15 10:24:29;;;;;;;24.75;20.13;;;13.80;99.90;;;;;;4909737;29;20040;-86
2022/10/15 10:27:05;;;;;;;25.15;19.17;;;13.90;99.90;;;;;;4926977;29;20498;-86
2022/10/15 10:29:38;;;;;;;26.17;20.85;;;13.90;99.90;;;;;;4910420;29;20123;-87
2022/10/15 10:32:20;;;;;;;24.27;20.67;;;13.90;99.90;;;;;;4942204;28;20519;-87
2022/10/15 10:34:46;;;;;;;25.95;20.58;;;14.00;99.90;;;;;;4912936;29;20047;-87
2022/10/15 10:37:12;;;;;;;24.40;20.08;;;14.20;99.90;;;;;;4897967;29;20456;-87
2022/10/15 10:39:38;;;;;;;26.92;19.75;;;15.00;99.90;;;;;;4946772;28;20400;-87
2022/10/15 10:42:29;;;;;;;21.75;18.83;;;14.80;99.90;;;;;;4899959;29;20051;-87
2022/10/15 10:45:06;;;;;;;18.95;17.05;;;15.10;99.90;;;;;;4926446;29;20480;-87
2022/10/15 10:47:37;;;;;;;19.10;17.10;;;15.40;99.90;;;;;;4897540;29;20143;-87
2022/10/15 10:50:28;;;;;;;19.52;17.42;;;15.60;99.90;;;;;;4896744;29;20271;-84
2022/10/15 10:52:53;;;;;;;18.95;17.05;;;15.50;99.90;;;;;;4911611;29;20404;-83
2022/10/15 10:55:25;;;;;;;19.85;17.85;;;15.30;99.90;;;;;;4896867;29;20040;-86
2022/10/15 10:57:56;;;;;;;19.23;17.27;;;15.20;99.90;;;;;;4914356;29;20419;-87
2022/10/15 11:00:40;;;;;;;20.58;18.40;;;15.10;99.90;;;;;;4940795;28;20559;-88
2022/10/15 11:04:02;;;;;;;21.25;19.05;;;15.10;99.90;;;;;;4941298;29;20048;-87
2022/10/15 11:07:27;;;;;;;19.45;17.50;;;15.10;99.90;;;;;;4938841;28;20060;-87
2022/10/15 11:10:12;;;;;;;20.30;18.17;;;15.00;99.90;;;;;;4933578;29;20056;-88
2022/10/15 11:12:47;;;;;;;20.40;18.15;;;15.00;99.90;;;;;;4932249;29;21854;-88
2022/10/15 11:15:28;;;;;;;20.53;17.93;;;15.00;99.90;;;;;;4911090;29;20044;-86
2022/10/15 11:18:08;;;;;;;21.48;16.85;;;15.00;99.90;;;;;;4930973;29;20036;-85
2022/10/15 11:21:04;;;;;;;19.88;17.77;;;15.10;99.90;;;;;;4950016;28;20043;-86
2022/10/15 11:23:59;;;;;;;20.27;17.80;;;15.10;99.90;;;;;;4953986;28;20044;-86
2022/10/15 11:26:52;;;;;;;23.13;18.33;;;15.20;99.90;;;;;;4917655;29;20044;-86
2022/10/15 11:29:59;;;;;;;18.80;16.80;;;15.20;99.90;;;;;;4940821;29;20130;-87
2022/10/15 11:32:46;;;;;;;19.13;17.10;;;15.20;99.90;;;;;;4951046;28;20047;-86
2022/10/15 11:35:19;;;;;;;18.15;16.33;;;15.20;99.90;;;;;;4952059;28;20490;-87
2022/10/15 11:38:12;;;;;;;17.17;15.55;;;15.20;99.90;;;;;;4954419;28;20094;-86
2022/10/15 11:41:10;;;;;;;18.30;16.38;;;15.10;99.90;;;;;;4934798;29;20094;-86
2022/10/15 11:44:13;;;;;;;16.75;14.88;;;15.20;99.90;;;;;;4937929;29;20697;-87
2022/10/15 11:46:53;;;;;;;16.90;15.13;;;15.20;99.90;;;;;;4935990;29;20078;-87
2022/10/15 11:49:46;;;;;;;16.90;15.00;;;15.20;99.90;;;;;;4944868;29;20086;-87
2022/10/15 11:52:51;;;;;;;15.95;14.52;;;15.20;99.90;;;;;;4920848;29;20055;-87
2022/10/15 11:55:26;;;;;;;15.98;14.27;;;15.20;99.90;;;;;;4934379;29;20077;-88
2022/10/15 11:57:57;;;;;;;15.67;14.13;;;15.10;99.90;;;;;;4940528;29;20054;-87
2022/10/15 12:00:54;;;;;;;15.88;14.05;;;15.80;99.90;;;;;;4917768;29;20050;-88
2022/10/15 12:03:26;;;;;;;16.60;14.88;;;15.20;99.90;;;;;;4916227;29;20514;-87
2022/10/15 12:06:17;;;;;;;16.60;14.75;;;15.20;99.90;;;;;;4929239;29;20484;-88
2022/10/15 12:09:23;;;;;;;19.38;15.43;;;15.20;99.90;;;;;;4917059;29;20376;-88
2022/10/15 12:12:26;;;;;;;17.15;15.35;;;15.20;99.90;;;;;;4919608;28;20046;-87
2022/10/15 12:15:11;;;;;;;17.08;15.30;;;15.20;99.90;;;;;;4881726;29;20055;-87
2022/10/15 12:21:26;;;;;;;17.15;15.35;;;15.20;99.90;;;;;;4937750;29;20475;-86
2022/10/15 12:28:24;;;;;;;18.45;16.55;;;15.20;99.90;;;;;;4885551;29;20612;-88
2022/10/15 12:31:12;;;;;;;18.13;16.20;;;15.30;99.90;;;;;;4846631;29;20068;-89
2022/10/15 12:33:56;;;;;;;17.08;15.27;;;15.60;99.90;;;;;;4876647;29;20041;-88
2022/10/15 12:36:30;;;;;;;18.33;15.48;;;15.20;99.90;;;;;;4866441;29;20051;-85
2022/10/15 12:38:59;;;;;;;19.58;16.73;;;15.30;99.90;;;;;;4863180;29;20123;-84
2022/10/15 12:41:37;;;;;;;20.15;17.95;;;15.30;99.90;;;;;;4912839;28;20051;-84
2022/10/15 12:44:14;;;;;;;19.30;17.30;;;15.30;99.90;;;;;;4935577;29;20042;-88
2022/10/15 12:46:39;;;;;;;19.77;17.27;;;15.30;99.90;;;;;;4935667;29;20062;-86
2022/10/15 12:49:31;;;;;;;23.05;17.48;;;15.20;99.90;;;;;;4904110;29;20060;-85
2022/10/15 12:52:41;;;;;;;18.42;16.20;;;15.20;99.90;;;;;;4914251;29;20153;-86
2022/10/15 12:55:27;;;;;;;21.52;18.42;;;15.10;99.90;;;;;;4917404;29;20126;-87
2022/10/15 12:57:55;;;;;;;19.67;16.73;;;15.10;99.90;;;;;;4931951;29;20048;-87
2022/10/15 13:00:30;;;;;;;23.20;17.38;;;15.00;99.90;;;;;;4914218;29;20043;-86
2022/10/15 13:03:01;;;;;;;24.05;18.55;;;15.00;99.90;;;;;;4916665;29;20101;-85
2022/10/15 13:05:28;;;;;;;23.13;17.92;;;15.00;99.90;;;;;;4948342;28;20142;-84
2022/10/15 13:07:56;;;;;;;25.08;17.83;;;14.90;99.90;;;;;;4925546;29;20087;-83
2022/10/15 13:10:50;;;;;;;23.65;18.38;;;14.90;99.90;;;;;;4925664;29;20048;-84
2022/10/15 13:13:21;;;;;;;23.08;17.38;;;14.90;99.90;;;;;;4909222;29;20083;-83
2022/10/15 13:18:59;;;;;;;27.92;16.02;;;14.90;99.90;;;;;;4916930;29;20353;-86
2022/10/15 13:22:00;;;;;;;22.20;16.98;;;14.90;99.90;;;;;;4913348;29;20416;-89
2022/10/15 13:24:54;;;;;;;21.10;17.15;;;14.90;99.90;;;;;;4924258;28;20054;-88
2022/10/15 13:27:40;;;;;;;20.92;16.20;;;14.90;99.90;;;;;;4878459;29;20087;-89
2022/10/15 13:30:11;;;;;;;19.85;16.20;;;14.90;99.90;;;;;;4900088;29;20147;-87
2022/10/15 13:32:49;;;;;;;22.85;15.98;;;14.90;99.90;;;;;;4913557;29;20482;-87